This is the latest recevied weather packets stored in our database for station/object KE0SWK-13. If no packets are shown the sender has not sent any weather packets the latest 10 day(s).
| Time | Temp. | Humidity | Pressure | Rain* | Wind** | Luminosity | Snow |
|---|---|---|---|---|---|---|---|
| 1777879833 | 17.78° C | 54% | 1008.9 hPa | 0 mm | - | - | - |
| 1777878631 | 18.33° C | 53% | 1009 hPa | 0 mm | - | - | - |
| 1777878020 | 18.33° C | 53% | 1009.1 hPa | 0 mm | - | - | - |
| 1777876240 | 18.89° C | 53% | 1009.5 hPa | 0 mm | - | - | - |
| 1777874421 | 19.44° C | 52% | 1009.6 hPa | 0 mm | - | - | - |
| 1777872643 | 19.44° C | 52% | 1009.7 hPa | 0 mm | - | - | - |
| 1777872032 | 19.44° C | 52% | 1009.8 hPa | 0 mm | - | - | - |
| 1777869066 | 19.44° C | 54% | 1009.7 hPa | 0 mm | - | - | - |
| 1777866624 | 20° C | 54% | 1010.1 hPa | 0 mm | - | - | - |
| 1777863020 | 21.11° C | 53% | 1010.4 hPa | 0 mm | - | - | - |
| 1777859423 | 21.67° C | 51% | 1010.4 hPa | 0 mm | - | - | - |
| 1777854025 | 24.44° C | 42% | 1010.8 hPa | 0 mm | - | - | - |
| 1777851639 | 25.56° C | 39% | 1011 hPa | 0 mm | - | - | - |
| 1777850451 | 26.67° C | 36% | 1011.2 hPa | 0 mm | - | - | - |
| 1777846224 | 27.78° C | 35% | 1011.4 hPa | 0 mm | - | - | - |
| 1777845625 | 27.78° C | 36% | 1011.5 hPa | 0 mm | - | - | - |
| 1777843831 | 27.78° C | 36% | 1011.7 hPa | 0 mm | - | - | - |
| 1777836021 | 27.22° C | 38% | 1013.7 hPa | 0 mm | - | - | - |
| 1777835429 | 27.22° C | 39% | 1013.8 hPa | 0 mm | - | - | - |
| 1777833634 | 26.67° C | 39% | 1014.2 hPa | 0 mm | - | - | - |
| 1777827622 | 23.89° C | 41% | 1015.9 hPa | 0 mm | - | - | - |
| 1777822829 | 21.67° C | 42% | 1017.3 hPa | 0 mm | - | - | - |
| 1777814429 | 15° C | 51% | 1018.6 hPa | 0 mm | - | - | - |
| 1777813819 | 13.89° C | 52% | 1018.6 hPa | 0 mm | - | - | - |
| 1777813226 | 13.33° C | 53% | 1018.6 hPa | 0 mm | - | - | - |
* Rain latest hour (hover to see other rain measurements)
** Current wind speed in m/s (hover to see current wind gust speed)